• Join FlightAware (Why Join?)
  • Login
  • US Flag 
06:11PM EDT


 

Airport Tracker/Info


-or-


 

Live Flight TrackerFlight Track Log ✈ SWA655 ✈ 02-May-2013 ✈ KSNA - KOAK

Flight Track Log - Related Links

Times and Time Zones

All times are in EDT time to prevent confusion due to time zone crossing. See the SWA655 flight status page for this flight to view local times or setup timezone preferences in your user account.

Time Position Orientation Groundspeed Altitude Reporting Facility
EDT Latitude Longitude Course Direction KTS MPH feet Rate Location/Type
02:38PM 33.6500 -117.8833 203° Southwest 144 166 1,300  Level Southern California TRACON
02:39PM 33.6167 -117.9000 203° Southwest 166 191 2,600 1,560 Climbing Southern California TRACON
02:40PM 33.5636 -117.9131 192° South 182 209 4,800 1,980 Climbing Los Angeles Center
02:41PM 33.5067 -117.9594 214° Southwest 236 272 7,000 1,320 Climbing Los Angeles Center
02:42PM 33.4256 -118.0214 213° Southwest 273 314 7,600 2,160 Climbing Los Angeles Center
02:43PM 33.3575 -118.0772 214° Southwest 291 335 11,500 3,600 Climbing Los Angeles Center
02:44PM 33.3414 -118.1761 259° West 314 361 15,100 2,460 Climbing Los Angeles Center
02:45PM 33.3564 -118.2858 279° West 330 380 16,700 1,980 Climbing Los Angeles Center
02:46PM 33.3944 -118.3997 292° West 386 444 19,300 2,700 Climbing Los Angeles Center
02:47PM 33.5006 -118.4225 350° North 398 458 22,300 2,700 Climbing Los Angeles Center
02:48PM 33.6150 -118.4258 359° North 408 470 25,000 2,580 Climbing Los Angeles Center
02:49PM 33.7492 -118.4289 359° North 424 488 27,700 2,280 Climbing Los Angeles Center
02:50PM 33.8631 -118.4319 359° North 436 502 29,800 2,040 Climbing Los Angeles Center
02:51PM 34.0069 -118.4686 348° North 445 512 32,000 2,160 Climbing Los Angeles Center
02:52PM 34.1214 -118.5256 338° Northwest 445 512 34,400 1,980 Climbing Los Angeles Center
02:53PM 34.2325 -118.5797 338° Northwest 436 502 36,200 1,620 Climbing Los Angeles Center
02:54PM 34.3442 -118.6347 338° Northwest 433 498 37,800 1,500 Climbing Los Angeles Center
02:55PM 34.4556 -118.6894 338° Northwest 434 499 39,300 1,020 Climbing Los Angeles Center
02:56PM 34.5875 -118.7550 338° Northwest 428 493 40,000 300 Climbing Los Angeles Center
02:57PM 34.6964 -118.8103 337° Northwest 426 490 40,000  Level Los Angeles Center
02:58PM 34.8056 -118.8681 337° Northwest 429 494 40,000  Level Los Angeles Center
02:59PM 34.9050 -118.9606 323° Northwest 419 482 40,000  Level Los Angeles Center
03:00PM 34.9956 -119.0494 321° Northwest 418 481 40,000  Level Los Angeles Center
03:01PM 35.0881 -119.1378 322° Northwest 423 487 40,000  Level Los Angeles Center
03:03PM 35.1789 -119.2264 321° Northwest 421 484 40,000  Level Los Angeles Center
03:04PM 35.2689 -119.3161 321° Northwest 418 481 40,000  Level Los Angeles Center
03:05PM 35.3778 -119.4228 321° Northwest 420 483 40,000  Level Los Angeles Center
03:05PM 35.3933 -119.4383 321° Northwest 419 482 40,000  Level Oakland Center
03:06PM 35.4833 -119.5283 321° Northwest 421 484 40,000  Level Oakland Center
03:07PM 35.5914 -119.6356 321° Northwest 419 482 40,000  Level Oakland Center
03:08PM 35.6819 -119.7250 321° Northwest 420 483 40,000  Level Oakland Center
03:09PM 35.7722 -119.8169 320° Northwest 423 487 40,000  Level Oakland Center
03:10PM 35.8622 -119.9061 321° Northwest 421 484 40,000  Level Oakland Center
03:11PM 35.9519 -119.9994 320° Northwest 424 488 40,000  Level Oakland Center
03:12PM 36.0417 -120.0872 322° Northwest 417 480 40,000  Level Oakland Center
03:13PM 36.1306 -120.1772 321° Northwest 417 480 40,000  Level Oakland Center
03:14PM 36.2375 -120.2864 321° Northwest 417 480 40,000 -720 Level Oakland Center
03:15PM 36.3253 -120.3778 320° Northwest 414 476 38,600 -1,980 Descending Oakland Center
03:16PM 36.4128 -120.4672 321° Northwest 410 472 36,000 -2,880 Descending Oakland Center
03:17PM 36.5022 -120.5564 321° Northwest 413 475 32,700 -2,940 Descending Oakland Center
03:18PM 36.5917 -120.6517 319° Northwest 422 486 30,000 -2,520 Descending Oakland Center
03:19PM 36.6786 -120.7428 320° Northwest 410 472 27,600 -2,340 Descending Oakland Center
03:20PM 36.7614 -120.8322 319° Northwest 397 457 25,300 -2,340 Descending Oakland Center
03:21PM 36.8419 -120.9200 319° Northwest 377 434 22,900 -2,220 Descending Oakland Center
03:22PM 36.9169 -121.0086 317° Northwest 370 426 20,800 -2,340 Descending Oakland Center
03:23PM 37.0047 -121.1086 318° Northwest 356 410 18,200 -2,220 Descending Oakland Center
03:24PM 37.0750 -121.1894 317° Northwest 351 404 16,300 -2,100 Descending Oakland Center
03:25PM 37.1489 -121.2744 317° Northwest 351 404 13,900 -2,220 Descending Oakland Center
03:26PM 37.2192 -121.3561 317° Northwest 346 398 11,800 -1,860 Descending Oakland Center
03:27PM 37.2878 -121.4367 317° Northwest 337 388 10,100 -1,200 Descending Oakland Center
03:28PM 37.3483 -121.5072 317° Northwest 297 342 9,400 -840 Descending Oakland Center
03:29PM 37.4000 -121.5667 318° Northwest 289 333 8,700 -1,080 Descending Northern Cal TRACON
03:30PM 37.4500 -121.6333 313° West 283 326 7,600 -1,080 Descending Northern Cal TRACON
03:31PM 37.5000 -121.7167 307° West 277 319 6,600 -1,020 Descending Northern Cal TRACON
03:32PM 37.5167 -121.8000 284° West 269 310 5,600 -960 Descending Northern Cal TRACON
03:33PM 37.5500 -121.9000 293° West 267 307 4,700 -1,020 Descending Northern Cal TRACON
03:34PM 37.5667 -121.9667 288° West 263 303 3,600 -900 Descending Northern Cal TRACON
03:35PM 37.6000 -122.0500 297° West 230 265 3,100 -780 Descending Northern Cal TRACON
03:36PM 37.6333 -122.1000 310° West 219 252 2,200 -960 Descending Northern Cal TRACON
03:37PM 37.6439 -122.1300 294° West 223 257 1,700 -900 Descending Oakland Center
03:38PM 37.6742 -122.1744 311° West 189 217 800 12,780 Descending Oakland Center
03:39PM 37.7042 -122.2186 311° West 153 176 28,000 26,280 Climbing Oakland Center
03:41PM 37.7167 -122.2167 270° West  Level FlightAware Approximate
03:48PM 37.7213 -122.2207 270° West  Level Estimated